createdAt,value
2019-05-03T07:09:05.358Z,47.60
2019-05-03T07:11:39.552Z,47.50
2019-05-03T07:14:20.793Z,47.10
2019-05-03T07:17:14.478Z,46.90
2019-05-03T07:20:07.943Z,46.50
2019-05-03T07:22:47.067Z,46.50
2019-05-03T07:25:25.574Z,46.70
2019-05-03T07:28:44.459Z,46.60
2019-05-03T07:50:35.765Z,43.00
2019-05-03T07:53:15.047Z,42.70
2019-05-03T07:56:01.617Z,42.40
2019-05-03T07:58:39.584Z,43.00
2019-05-03T08:01:40.259Z,43.80
2019-05-03T08:04:19.435Z,43.80
2019-05-03T08:07:22.435Z,43.80
2019-05-03T08:10:08.123Z,43.00
2019-05-03T08:12:48.494Z,42.70
2019-05-03T08:15:46.349Z,43.20
2019-05-03T08:21:39.310Z,44.00
2019-05-03T08:24:18.548Z,43.60
2019-05-03T08:27:33.023Z,43.40
2019-05-03T08:30:28.935Z,43.50
2019-05-03T08:33:19.176Z,43.10
2019-05-03T08:35:50.928Z,42.00
2019-05-03T08:38:28.531Z,40.80
2019-05-03T08:41:06.662Z,40.70
2019-05-03T08:43:37.279Z,40.70
2019-05-03T08:46:19.308Z,40.30
2019-05-03T09:00:30.737Z,40.50
2019-05-03T09:03:09.980Z,40.30
2019-05-03T09:05:50.574Z,40.60
2019-05-03T09:08:26.751Z,41.00
2019-05-03T09:11:34.846Z,40.40
2019-05-03T09:14:11.750Z,39.10
2019-05-03T09:16:44.736Z,38.20
2019-05-03T09:19:22.495Z,38.10
2019-05-03T09:26:15.771Z,38.40
2019-05-03T09:29:08.242Z,37.80
2019-05-03T10:10:05.747Z,45.70
2019-05-03T10:13:13.176Z,44.50
2019-05-03T10:16:27.583Z,44.90
2019-05-03T10:19:13.715Z,46.40
2019-05-03T10:22:49.682Z,47.70
2019-05-03T10:28:58.663Z,48.40
2019-05-03T10:32:18.685Z,46.40
2019-05-03T10:35:05.488Z,46.30
2019-05-03T10:37:59.660Z,47.60
2019-05-03T10:40:38.150Z,47.50
2019-05-03T10:43:47.825Z,48.50
2019-05-03T10:49:45.749Z,49.20
2019-05-03T10:55:38.835Z,50.00
2019-05-03T10:58:28.837Z,49.90
2019-05-03T11:01:21.012Z,49.90
2019-05-03T11:07:38.511Z,47.90
2019-05-03T11:11:00.883Z,46.60
2019-05-03T11:13:51.919Z,46.20
2019-05-03T11:19:58.386Z,45.60
2019-05-03T11:22:45.247Z,45.10
2019-05-03T11:29:15.368Z,44.00
2019-05-03T11:32:16.363Z,42.90
2019-05-03T11:37:47.159Z,40.40
2019-05-03T11:40:35.098Z,38.90
2019-05-03T11:44:07.178Z,37.50
2019-05-03T11:46:55.580Z,37.00
2019-05-03T11:49:38.354Z,36.50
2019-05-03T11:52:15.877Z,35.40
2019-05-03T11:55:11.364Z,33.50
2019-05-03T11:58:27.186Z,34.00
2019-05-03T12:01:31.509Z,34.70
2019-05-03T12:04:07.785Z,34.70
2019-05-03T12:06:49.164Z,34.00
2019-05-03T12:09:23.620Z,32.90
2019-05-03T12:12:30.091Z,32.10
2019-05-03T12:18:52.225Z,30.90
2019-05-03T12:21:14.742Z,28.90
2019-05-03T12:23:47.017Z,28.90
2019-05-03T12:26:19.301Z,27.90
2019-05-03T12:29:09.352Z,27.80
2019-05-03T12:31:40.626Z,27.90
2019-05-03T12:34:16.495Z,28.10
2019-05-03T12:37:28.143Z,29.00
2019-05-03T12:40:26.953Z,29.40
2019-05-03T12:43:05.976Z,28.10
2019-05-03T12:45:41.343Z,27.40
2019-05-03T12:51:34.526Z,29.50
2019-05-03T12:54:15.266Z,32.50
2019-05-03T12:56:51.246Z,32.90
2019-05-03T12:59:48.312Z,32.20
2019-05-03T13:02:29.226Z,32.00
2019-05-03T13:05:07.678Z,31.80
2019-05-03T13:07:46.272Z,31.70
2019-05-03T13:10:34.641Z,31.80
2019-05-03T13:13:17.794Z,32.20
2019-05-03T13:16:10.236Z,32.90
